Giddings, TX

6:34 PM CST en Febrero 28, 2015 (GMT -0600)
Whispering Oaks | Change Station
CLOSE
Current Station
Estación meteorológica personal
Location: Giddings, TX
Altura: 505 ft
Estaciones meteorológicas cercanas

Alt 505 ft 30.17 °N, 96.92 °W | Updated 1 minute ago

Overcast
Nublado
42.6 ° F
Sensación térmica 38 ° F
N
7.6
Viento Variable Viento desde NO
Gusts 8.3 mph

Hoy
Alta -- | Baja -- ° F
--% Posibilidad de precipitaciones
Ayer
Alta -- | Baja -- ° F
Precip. -- pul
6:55 AM 6:25 PM
Gibosa creciente, 81% visible
Presión 30.27 pul
Visibilidad 7.0 Millas
Nubes Nublado 1700 ft
Vientos helados 38 ° F
Punto de rocío 40 ° F
Humedad 89%
Precipitaciones 0.00 pul
Espesor de la nieve No disponible.
UV 0 de una escala de 12
Polen 8.30 de una escala de 12
Calidad del aire No disponible.
Flu Activity No disponible.
METAR KGYB 010015Z AUTO 36006KT 7SM OVC017 06/03 A3027 RMK AO2 T00550025

More Conditions Fewer Conditions

Presión 30.27 pul
Visibilidad 7.0 Millas
Nubes Nublado 1700 ft
Vientos helados 38 ° F
Punto de rocío 40 ° F
Humedad 89%
Precipitaciones 0.00 pul
Espesor de la nieve No disponible.
UV 0 de una escala de 12
Polen 8.30 de una escala de 12
Calidad del aire No disponible.
Flu Activity No disponible.
METAR KGYB 010015Z AUTO 36006KT 7SM OVC017 06/03 A3027 RMK AO2 T00550025

More Conditions Fewer Conditions

10-Day Weather Forecast

Almanac

Astronomía

Feb. 28, 2015 Salida Puesta
Hora real
Crepúsculo civil
Crepúsculo náutico
Crepúsculo astronómico
Luna
Horas de luz
Horas de luz
Tomorrow will be .
, % of the Moon is Illuminated

Extremos de hoy

Máximos del estado Bajos del estado

Community

WunderPhotos

Upload Photos

1,801,191 ¡fotos cargadas!

WunderBlogs® & News

Nearby

Calidad del aire

  Calidad del aire Índice AQ Contaminante
Not available.

Grosos de nieve

Estación Profundido Altura

Actividad de terremotos

Ciudad Distance Mag. Tiempo y dato
Magnitud mínima muestra es 2,5.

Temperaturas de aguas costeras

Lugar Temperatura

Estaciones meteorológicas cercanas